createdAt,value
2019-03-03T00:00:45.117Z,60.40
2019-03-03T00:07:42.248Z,60.20
2019-03-03T00:14:40.589Z,60.30
2019-03-03T00:21:37.859Z,60.20
2019-03-03T00:28:34.924Z,60.00
2019-03-03T00:35:31.705Z,60.00
2019-03-03T00:49:45.208Z,59.40
2019-03-03T00:57:01.637Z,58.90
2019-03-03T01:04:17.646Z,58.30
2019-03-03T01:11:18.784Z,58.00
2019-03-03T01:18:20.942Z,58.50
2019-03-03T01:25:18.155Z,57.90
2019-03-03T01:32:15.489Z,58.20
2019-03-03T01:39:12.834Z,58.30
2019-03-03T01:46:10.036Z,58.30
2019-03-03T01:53:07.499Z,58.00
2019-03-03T02:00:04.306Z,58.10
2019-03-03T02:07:02.015Z,57.90
2019-03-03T02:13:59.123Z,57.60
2019-03-03T02:20:55.943Z,57.60
2019-03-03T02:27:53.179Z,57.30
2019-03-03T02:34:49.995Z,57.00
2019-03-03T02:41:47.113Z,56.80
2019-03-03T02:48:44.463Z,56.20
2019-03-03T02:55:41.210Z,56.00
2019-03-03T03:02:42.895Z,55.10
2019-03-03T03:09:41.290Z,54.70
2019-03-03T03:16:57.384Z,55.00
2019-03-03T03:23:59.023Z,55.60
2019-03-03T03:31:00.461Z,55.40
2019-03-03T03:38:17.003Z,55.40
2019-03-03T03:45:33.879Z,54.90
2019-03-03T03:52:33.437Z,55.60
2019-03-03T03:59:31.873Z,56.40
2019-03-03T04:06:48.015Z,57.20
2019-03-03T04:14:05.190Z,57.60
2019-03-03T04:21:03.716Z,58.30
2019-03-03T04:28:20.612Z,58.80
2019-03-03T04:35:19.475Z,59.40
2019-03-03T04:42:35.616Z,59.50
2019-03-03T04:49:34.098Z,59.70
2019-03-03T04:56:32.424Z,59.50
2019-03-03T05:03:31.701Z,59.40
2019-03-03T05:10:47.799Z,59.80
2019-03-03T05:18:04.219Z,60.10
2019-03-03T05:25:02.222Z,60.40
2019-03-03T05:31:59.077Z,60.80
2019-03-03T05:38:56.289Z,60.60
2019-03-03T05:45:53.156Z,60.50
2019-03-03T05:52:50.227Z,60.80
2019-03-03T05:59:47.668Z,61.00
2019-03-03T06:06:44.932Z,61.10
2019-03-03T06:13:42.612Z,60.60
2019-03-03T06:20:40.103Z,60.00
2019-03-03T06:27:37.245Z,59.00
2019-03-03T06:34:34.007Z,58.30
2019-03-03T06:41:30.960Z,57.60
2019-03-03T06:48:28.056Z,57.00
2019-03-03T06:55:25.106Z,55.40
2019-03-03T07:02:22.147Z,54.80
2019-03-03T07:09:20.150Z,52.00
2019-03-03T07:16:17.744Z,49.10
2019-03-03T07:23:15.310Z,45.20
2019-03-03T07:30:12.711Z,39.60
2019-03-03T07:37:10.313Z,43.60
2019-03-03T07:44:07.672Z,44.40
2019-03-03T07:51:05.051Z,41.10
2019-03-03T07:58:01.891Z,44.60
2019-03-03T08:04:59.103Z,46.10
2019-03-03T08:11:55.773Z,47.00
2019-03-03T08:18:53.259Z,47.80
2019-03-03T08:25:50.586Z,48.10
2019-03-03T08:32:47.945Z,47.90
2019-03-03T08:39:45.344Z,48.20
2019-03-03T08:54:02.205Z,48.60
2019-03-03T09:01:04.206Z,48.50
2019-03-03T09:08:20.269Z,48.30
2019-03-03T09:15:17.391Z,47.90
2019-03-03T09:22:16.087Z,46.10
2019-03-03T09:29:14.463Z,45.50
2019-03-03T09:43:59.403Z,45.50
2019-03-03T09:51:00.813Z,44.20
2019-03-03T09:58:17.213Z,44.60
2019-03-03T10:05:16.197Z,44.90
2019-03-03T10:12:32.688Z,44.90
2019-03-03T10:27:05.545Z,42.40
2019-03-03T10:34:04.658Z,41.20
2019-03-03T10:41:20.857Z,41.60
2019-03-03T11:10:35.107Z,42.50
2019-03-03T11:17:51.839Z,42.10
2019-03-03T11:24:52.931Z,40.10
2019-03-03T11:31:52.123Z,39.40
2019-03-03T11:39:08.245Z,39.10
2019-03-03T11:46:07.820Z,38.80
2019-03-03T11:53:24.202Z,38.00
2019-03-03T12:00:25.312Z,38.10
2019-03-03T12:07:27.039Z,37.80
2019-03-03T12:14:43.821Z,38.40
2019-03-03T12:28:58.227Z,39.30
2019-03-03T12:35:56.611Z,39.50
2019-03-03T12:50:42.899Z,38.30
2019-03-03T12:57:59.317Z,38.80
2019-03-03T13:12:45.391Z,37.50
2019-03-03T13:19:44.041Z,38.50
2019-03-03T13:27:00.607Z,39.90
2019-03-03T13:41:45.306Z,40.60
2019-03-03T13:48:43.007Z,40.50
2019-03-03T13:55:39.882Z,40.80
2019-03-03T14:02:37.158Z,40.00
2019-03-03T14:09:34.244Z,40.30
2019-03-03T14:16:31.454Z,40.40
2019-03-03T14:23:29.371Z,40.70
2019-03-03T14:30:26.405Z,40.30
2019-03-03T14:37:23.403Z,39.10
2019-03-03T14:44:20.828Z,38.70
2019-03-03T14:51:18.212Z,38.40
2019-03-03T14:58:16.821Z,37.90
2019-03-03T15:05:14.435Z,37.90
2019-03-03T15:12:11.247Z,36.60
2019-03-03T15:19:08.602Z,37.00
2019-03-03T15:26:06.364Z,37.10
2019-03-03T15:33:03.942Z,37.50
2019-03-03T15:40:00.822Z,37.80
2019-03-03T15:46:58.968Z,38.40
2019-03-03T15:53:56.967Z,38.80
2019-03-03T16:00:53.917Z,39.00
2019-03-03T16:07:49.233Z,39.40
2019-03-03T16:14:53.427Z,39.00
2019-03-03T16:21:50.546Z,39.90
2019-03-03T16:28:48.016Z,40.30
2019-03-03T16:35:45.206Z,41.40
2019-03-03T16:42:42.445Z,40.90
2019-03-03T16:49:39.692Z,41.50
2019-03-03T16:56:36.941Z,41.90
2019-03-03T17:03:34.231Z,42.10
2019-03-03T17:10:31.599Z,42.30
2019-03-03T17:17:29.112Z,42.50
2019-03-03T17:24:26.057Z,42.70
2019-03-03T17:31:23.955Z,42.90
2019-03-03T17:38:22.148Z,42.80
2019-03-03T17:45:19.805Z,42.90
2019-03-03T17:52:16.637Z,43.20
2019-03-03T17:59:13.307Z,43.70
2019-03-03T18:06:10.868Z,44.20
2019-03-03T18:13:07.727Z,44.30
2019-03-03T18:20:04.391Z,45.00
2019-03-03T18:27:01.575Z,45.50
2019-03-03T18:33:59.051Z,45.60
2019-03-03T18:40:56.444Z,47.30
2019-03-03T18:47:53.134Z,47.70
2019-03-03T18:54:50.907Z,48.00
2019-03-03T19:01:47.703Z,48.90
2019-03-03T19:08:43.091Z,50.20
2019-03-03T19:15:47.292Z,50.50
2019-03-03T19:22:44.492Z,50.30
2019-03-03T19:29:41.924Z,50.30
2019-03-03T19:36:38.949Z,51.40
2019-03-03T19:43:35.774Z,51.40
2019-03-03T19:50:32.739Z,51.70
2019-03-03T19:57:29.581Z,51.30
2019-03-03T20:04:27.219Z,50.60
2019-03-03T20:11:24.141Z,50.60
2019-03-03T20:18:21.168Z,51.00
2019-03-03T20:25:18.076Z,51.10
2019-03-03T20:32:13.335Z,50.00
2019-03-03T20:39:10.828Z,49.10
2019-03-03T20:46:06.366Z,48.80
2019-03-03T20:53:10.593Z,48.40
2019-03-03T21:00:08.126Z,48.40
2019-03-03T21:07:05.804Z,49.10
2019-03-03T21:14:03.830Z,49.80
2019-03-03T21:21:01.077Z,50.70
2019-03-03T21:27:57.928Z,51.40
2019-03-03T21:34:55.548Z,51.40
2019-03-03T21:41:52.992Z,53.70
2019-03-03T21:48:50.173Z,54.10
2019-03-03T21:55:47.194Z,54.30
2019-03-03T22:02:43.872Z,54.70
2019-03-03T22:09:40.996Z,54.70
2019-03-03T22:16:37.600Z,54.40
2019-03-03T22:23:35.163Z,52.40
2019-03-03T22:30:32.386Z,52.40
2019-03-03T22:37:29.955Z,51.20
2019-03-03T22:44:27.004Z,50.80
2019-03-03T22:51:23.915Z,51.50
2019-03-03T22:58:21.027Z,53.30
2019-03-03T23:05:17.800Z,54.80
2019-03-03T23:12:14.774Z,56.40
2019-03-03T23:19:11.968Z,55.60
2019-03-03T23:26:16.245Z,56.70
2019-03-03T23:33:08.631Z,57.00
2019-03-03T23:40:05.950Z,56.10
2019-03-03T23:47:02.839Z,56.60
2019-03-03T23:53:59.760Z,56.80
